createdAt,value
2019-03-21T00:01:03.928Z,3.20
2019-03-21T00:03:37.696Z,1.67
2019-03-21T00:06:12.505Z,4.07
2019-03-21T00:08:46.279Z,2.93
2019-03-21T00:11:53.006Z,2.47
2019-03-21T00:14:55.913Z,0.50
2019-03-21T00:17:32.538Z,1.77
2019-03-21T00:20:06.375Z,1.67
2019-03-21T00:22:39.809Z,0.70
2019-03-21T00:25:14.867Z,0.93
2019-03-21T00:27:48.499Z,0.97
2019-03-21T00:30:23.674Z,4.13
2019-03-21T00:32:57.652Z,0.53
2019-03-21T00:35:31.506Z,1.43
2019-03-21T00:38:08.420Z,1.43
2019-03-21T00:40:44.324Z,2.97
2019-03-21T00:43:18.111Z,2.97
2019-03-21T00:45:51.781Z,0.87
2019-03-21T00:48:25.821Z,0.57
2019-03-21T00:51:01.605Z,3.70
2019-03-21T00:53:35.233Z,2.50
2019-03-21T00:56:09.244Z,5.20
2019-03-21T00:58:42.725Z,1.20
2019-03-21T01:01:16.424Z,2.67
2019-03-21T01:03:50.019Z,0.80
2019-03-21T01:06:23.550Z,3.70
2019-03-21T01:08:57.307Z,1.13
2019-03-21T01:11:31.221Z,2.07
2019-03-21T01:14:04.699Z,0.87
2019-03-21T01:16:38.456Z,1.17
2019-03-21T01:19:12.193Z,2.13
2019-03-21T01:21:46.032Z,1.93
2019-03-21T01:24:19.787Z,1.73
2019-03-21T01:26:53.422Z,1.23
2019-03-21T01:29:27.015Z,1.00
2019-03-21T01:32:00.752Z,2.97
2019-03-21T01:34:34.419Z,0.90
2019-03-21T01:37:08.330Z,0.77
2019-03-21T01:39:41.773Z,2.87
2019-03-21T01:42:15.334Z,3.63
2019-03-21T01:44:48.974Z,0.70
2019-03-21T01:47:22.501Z,1.97
2019-03-21T01:49:56.049Z,1.53
2019-03-21T01:52:29.756Z,2.77
2019-03-21T01:55:03.419Z,1.23
2019-03-21T01:57:38.369Z,1.83
2019-03-21T02:00:17.666Z,0.83
2019-03-21T02:02:52.291Z,1.50
2019-03-21T02:05:25.797Z,1.00
2019-03-21T02:07:59.637Z,1.30
2019-03-21T02:10:33.447Z,2.10
2019-03-21T02:13:07.386Z,0.90
2019-03-21T02:15:41.098Z,0.80
2019-03-21T02:18:14.639Z,1.43
2019-03-21T02:20:48.394Z,2.90
2019-03-21T02:23:27.051Z,0.70
2019-03-21T02:26:00.863Z,0.93
2019-03-21T02:28:34.693Z,1.17
2019-03-21T02:31:08.622Z,0.90
2019-03-21T02:33:42.763Z,0.77
2019-03-21T02:36:17.834Z,1.20
2019-03-21T02:38:51.380Z,1.73
2019-03-21T02:41:25.831Z,0.77
2019-03-21T02:43:59.699Z,0.90
2019-03-21T02:46:33.236Z,1.10
2019-03-21T02:49:06.886Z,1.20
2019-03-21T02:51:40.587Z,1.43
2019-03-21T02:54:14.555Z,1.10
2019-03-21T02:56:48.609Z,1.37
2019-03-21T02:59:22.496Z,0.83
2019-03-21T03:01:58.814Z,1.17
2019-03-21T03:04:32.528Z,2.03
2019-03-21T03:07:06.232Z,0.43
2019-03-21T03:09:40.663Z,1.20
2019-03-21T03:12:14.567Z,1.70
2019-03-21T03:14:48.414Z,1.30
2019-03-21T03:17:22.116Z,0.67
2019-03-21T03:19:55.767Z,4.20
2019-03-21T03:22:29.341Z,0.83
2019-03-21T03:25:02.936Z,0.80
2019-03-21T03:27:36.625Z,0.87
2019-03-21T03:30:12.213Z,0.83
2019-03-21T03:32:46.200Z,1.80
2019-03-21T03:35:20.105Z,0.80
2019-03-21T03:37:54.004Z,0.70
2019-03-21T03:40:31.342Z,0.80
2019-03-21T03:43:05.149Z,0.97
2019-03-21T03:45:39.377Z,3.20
2019-03-21T03:48:13.100Z,0.97
2019-03-21T03:50:46.892Z,1.03
2019-03-21T03:53:20.541Z,0.60
2019-03-21T03:55:54.484Z,0.70
2019-03-21T03:58:28.589Z,2.47
2019-03-21T04:01:02.526Z,1.07
2019-03-21T04:03:36.313Z,3.33
2019-03-21T04:06:11.069Z,1.67
2019-03-21T04:08:45.015Z,2.40
2019-03-21T04:11:18.840Z,1.33
2019-03-21T04:13:52.384Z,1.20
2019-03-21T04:16:26.656Z,0.80
2019-03-21T04:19:00.320Z,2.00
2019-03-21T04:21:34.494Z,0.60
2019-03-21T04:24:08.377Z,0.83
2019-03-21T04:26:49.379Z,1.17
2019-03-21T04:29:20.263Z,2.97
2019-03-21T04:31:53.966Z,1.77
2019-03-21T04:34:27.680Z,1.40
2019-03-21T04:37:01.418Z,1.37
2019-03-21T04:39:35.018Z,3.20
2019-03-21T04:42:08.872Z,1.83
2019-03-21T04:44:44.410Z,1.33
2019-03-21T04:47:17.472Z,0.97
2019-03-21T04:49:51.202Z,0.50
2019-03-21T04:52:24.898Z,1.40
2019-03-21T04:54:58.416Z,0.80
2019-03-21T04:57:32.009Z,0.70
2019-03-21T05:00:05.678Z,1.90
2019-03-21T05:02:39.468Z,0.93
2019-03-21T05:05:13.821Z,1.70
2019-03-21T05:07:47.742Z,0.87
2019-03-21T05:10:21.550Z,1.17
2019-03-21T05:12:55.247Z,1.67
2019-03-21T05:15:31.488Z,1.03
2019-03-21T05:18:08.596Z,2.13
2019-03-21T05:20:42.401Z,0.60
2019-03-21T05:23:16.126Z,2.47
2019-03-21T05:25:49.924Z,0.70
2019-03-21T05:28:23.782Z,4.13
2019-03-21T05:31:16.030Z,1.47
2019-03-21T05:33:49.774Z,1.30
2019-03-21T05:36:23.436Z,2.17
2019-03-21T05:38:59.705Z,2.50
2019-03-21T05:41:33.421Z,1.27
2019-03-21T05:44:14.823Z,1.57
2019-03-21T05:46:48.413Z,1.30
2019-03-21T05:49:22.451Z,1.33
2019-03-21T05:51:56.000Z,1.00
2019-03-21T05:54:29.819Z,0.73
2019-03-21T05:57:04.224Z,2.53
2019-03-21T05:59:39.905Z,1.63
2019-03-21T06:02:16.884Z,1.20
2019-03-21T06:04:53.474Z,0.80
2019-03-21T06:07:55.806Z,1.30
2019-03-21T06:10:29.652Z,2.03
2019-03-21T06:13:03.280Z,1.43
2019-03-21T06:15:37.989Z,1.93
2019-03-21T06:18:33.784Z,0.70
2019-03-21T06:21:29.571Z,1.17
2019-03-21T06:24:15.498Z,1.70
2019-03-21T06:27:13.759Z,2.90
2019-03-21T06:29:38.134Z,1.77
2019-03-21T06:32:13.070Z,2.13
2019-03-21T06:34:47.091Z,0.93
2019-03-21T06:37:20.808Z,0.70
2019-03-21T06:39:54.605Z,1.90
2019-03-21T06:42:28.350Z,2.83
2019-03-21T06:45:02.034Z,2.17
2019-03-21T06:47:47.666Z,1.73
2019-03-21T06:50:40.220Z,3.80
2019-03-21T06:53:15.974Z,1.40
2019-03-21T06:55:49.809Z,1.07
2019-03-21T06:58:23.542Z,1.03
2019-03-21T07:00:57.155Z,0.90
2019-03-21T07:03:32.043Z,2.33
2019-03-21T07:06:05.976Z,0.93
2019-03-21T07:08:39.789Z,2.70
2019-03-21T07:11:13.707Z,2.00
2019-03-21T07:13:47.557Z,1.27
2019-03-21T07:16:21.382Z,2.90
2019-03-21T07:18:55.177Z,2.03
2019-03-21T07:21:28.870Z,2.17
2019-03-21T07:24:02.652Z,0.87
2019-03-21T07:26:36.449Z,1.93
2019-03-21T07:29:10.096Z,0.93
2019-03-21T07:31:43.921Z,1.57
2019-03-21T07:34:17.967Z,0.90
2019-03-21T07:36:51.681Z,2.70
2019-03-21T07:39:25.364Z,2.60
2019-03-21T07:42:01.144Z,1.50
2019-03-21T07:44:34.402Z,1.00
2019-03-21T07:47:12.870Z,1.13
2019-03-21T07:49:43.268Z,1.57
2019-03-21T07:52:17.146Z,1.63
2019-03-21T07:54:50.960Z,1.10
2019-03-21T07:57:24.717Z,1.33
2019-03-21T07:59:58.383Z,0.63
2019-03-21T08:02:32.173Z,3.17
2019-03-21T08:05:05.886Z,3.77
2019-03-21T08:07:39.560Z,1.40
2019-03-21T08:10:13.577Z,2.20
2019-03-21T08:12:47.494Z,1.37
2019-03-21T08:15:21.437Z,3.63
2019-03-21T08:17:55.263Z,1.47
2019-03-21T08:20:28.879Z,1.83
2019-03-21T08:23:02.488Z,1.07
2019-03-21T08:25:36.606Z,1.97
2019-03-21T08:28:10.479Z,1.60
2019-03-21T08:31:07.368Z,1.97
2019-03-21T08:33:40.956Z,1.77
2019-03-21T08:36:15.951Z,1.53
2019-03-21T08:38:49.746Z,1.80
2019-03-21T08:41:23.678Z,3.17
2019-03-21T08:43:57.264Z,2.40
2019-03-21T08:46:31.051Z,3.53
2019-03-21T08:49:04.851Z,2.67
2019-03-21T08:51:38.595Z,2.97
2019-03-21T08:54:12.310Z,2.93
2019-03-21T08:56:46.239Z,5.47
2019-03-21T08:59:21.208Z,4.53
2019-03-21T09:01:55.043Z,4.10
2019-03-21T09:04:28.744Z,7.10
2019-03-21T09:07:02.455Z,5.90
2019-03-21T09:09:36.066Z,5.47
2019-03-21T09:12:10.102Z,2.57
2019-03-21T09:14:43.624Z,4.90
2019-03-21T09:17:17.460Z,2.07
2019-03-21T09:19:51.098Z,4.70
2019-03-21T09:22:27.377Z,3.80
2019-03-21T09:24:59.883Z,2.63
2019-03-21T09:27:33.966Z,3.17
2019-03-21T09:30:08.568Z,5.57
2019-03-21T09:32:42.362Z,2.50
2019-03-21T09:35:16.230Z,2.40
2019-03-21T09:37:50.109Z,2.80
2019-03-21T09:40:23.799Z,1.70
2019-03-21T09:42:57.443Z,1.70
2019-03-21T09:45:31.007Z,3.00
2019-03-21T09:48:04.812Z,1.63
2019-03-21T09:50:38.470Z,1.97
2019-03-21T09:53:12.269Z,1.87
2019-03-21T09:55:45.999Z,3.53
2019-03-21T09:58:19.698Z,1.33
2019-03-21T10:00:53.476Z,1.47
2019-03-21T10:03:27.091Z,0.77
2019-03-21T10:06:00.869Z,1.77
2019-03-21T10:08:34.713Z,1.97
2019-03-21T10:11:08.464Z,1.30
2019-03-21T10:13:42.165Z,2.53
2019-03-21T10:16:16.131Z,0.80
2019-03-21T10:18:49.864Z,1.30
2019-03-21T10:21:23.364Z,1.53
2019-03-21T10:23:56.999Z,0.90
2019-03-21T10:26:30.737Z,0.90
2019-03-21T10:29:04.734Z,1.83
2019-03-21T10:31:38.591Z,2.50
2019-03-21T10:34:12.405Z,1.50
2019-03-21T10:36:45.913Z,2.13
2019-03-21T10:39:19.546Z,1.13
2019-03-21T10:41:53.110Z,2.00
2019-03-21T10:44:27.040Z,2.17
2019-03-21T10:47:01.152Z,3.07
2019-03-21T10:49:34.805Z,3.00
2019-03-21T10:52:08.618Z,2.33
2019-03-21T10:54:42.229Z,1.97
2019-03-21T10:57:16.100Z,2.67
2019-03-21T10:59:49.910Z,1.83
2019-03-21T11:02:23.587Z,1.60
2019-03-21T11:04:57.362Z,3.50
2019-03-21T11:07:29.047Z,1.20
2019-03-21T11:10:02.812Z,1.23
2019-03-21T11:12:36.338Z,2.10
2019-03-21T11:15:10.555Z,0.97
2019-03-21T11:17:44.199Z,2.97
2019-03-21T11:20:28.879Z,1.20
2019-03-21T11:23:02.590Z,2.30
2019-03-21T11:25:36.418Z,3.67
2019-03-21T11:28:11.014Z,1.07
2019-03-21T11:30:48.569Z,1.40
2019-03-21T11:33:22.339Z,2.20
2019-03-21T11:35:56.009Z,1.97
2019-03-21T11:38:29.663Z,1.40
2019-03-21T11:41:03.456Z,1.67
2019-03-21T11:43:37.208Z,1.37
2019-03-21T11:46:11.009Z,2.73
2019-03-21T11:48:44.692Z,1.43
2019-03-21T11:51:18.535Z,1.57
2019-03-21T11:53:52.404Z,1.20
2019-03-21T11:56:26.113Z,2.53
2019-03-21T11:58:59.774Z,1.47
2019-03-21T12:01:33.461Z,1.50
2019-03-21T12:04:07.112Z,2.93
2019-03-21T12:06:40.868Z,1.87
2019-03-21T12:09:14.704Z,3.63
2019-03-21T12:11:48.508Z,3.40
2019-03-21T12:14:22.184Z,2.00
2019-03-21T12:16:56.074Z,3.97
2019-03-21T12:19:29.908Z,3.00
2019-03-21T12:22:05.522Z,2.80
2019-03-21T12:24:39.330Z,3.83
2019-03-21T12:27:13.005Z,3.37
2019-03-21T12:29:46.805Z,3.17
2019-03-21T12:32:20.780Z,6.53
2019-03-21T12:34:54.369Z,4.00
2019-03-21T12:37:28.072Z,1.93
2019-03-21T12:40:01.618Z,3.20
2019-03-21T12:42:35.187Z,1.60
2019-03-21T12:45:10.652Z,1.70
2019-03-21T12:47:46.034Z,1.50
2019-03-21T12:50:19.821Z,2.60
2019-03-21T12:52:53.635Z,2.90
2019-03-21T12:55:27.543Z,2.40
2019-03-21T12:58:01.556Z,6.70
2019-03-21T13:00:51.687Z,2.50
2019-03-21T13:03:25.414Z,2.43
2019-03-21T13:05:59.056Z,4.03
2019-03-21T13:08:35.501Z,2.17
2019-03-21T13:11:09.244Z,3.53
2019-03-21T13:13:42.872Z,3.20
2019-03-21T13:16:16.528Z,5.47
2019-03-21T13:18:50.197Z,3.23
2019-03-21T13:21:25.992Z,5.23
2019-03-21T13:23:59.401Z,4.60
2019-03-21T13:26:32.984Z,3.77
2019-03-21T13:29:06.777Z,5.67
2019-03-21T13:31:40.421Z,6.57
2019-03-21T13:34:14.947Z,4.27
2019-03-21T13:36:48.558Z,2.53
2019-03-21T13:39:22.247Z,4.27
2019-03-21T13:41:56.581Z,3.17
2019-03-21T13:44:30.221Z,2.97
2019-03-21T13:47:03.837Z,5.10
2019-03-21T13:49:37.472Z,6.93
2019-03-21T13:52:10.992Z,4.83
2019-03-21T13:54:46.629Z,3.53
2019-03-21T13:57:20.248Z,4.57
2019-03-21T13:59:54.119Z,4.63
2019-03-21T14:02:32.249Z,5.63
2019-03-21T14:05:06.071Z,3.13
2019-03-21T14:07:39.843Z,4.37
2019-03-21T14:10:14.290Z,6.43
2019-03-21T14:12:47.910Z,4.97
2019-03-21T14:15:21.994Z,7.63
2019-03-21T14:17:55.775Z,5.43
2019-03-21T14:20:29.362Z,8.33
2019-03-21T14:23:02.947Z,5.13
2019-03-21T14:25:36.707Z,4.90
2019-03-21T14:28:10.591Z,5.37
2019-03-21T14:30:44.307Z,6.50
2019-03-21T14:33:18.112Z,7.03
2019-03-21T14:35:51.714Z,7.10
2019-03-21T14:38:26.675Z,6.40
2019-03-21T14:41:00.536Z,4.30
2019-03-21T14:43:36.217Z,6.87
2019-03-21T14:46:09.986Z,9.37
2019-03-21T14:48:43.677Z,7.77
2019-03-21T14:51:17.605Z,7.60
2019-03-21T14:53:51.471Z,7.07
2019-03-21T14:56:25.003Z,4.90
2019-03-21T14:58:58.611Z,12.67
2019-03-21T15:01:32.388Z,10.03
2019-03-21T15:04:06.195Z,5.40
2019-03-21T15:06:39.791Z,9.73
2019-03-21T15:09:15.846Z,7.33
2019-03-21T15:11:49.676Z,12.57
2019-03-21T15:14:23.407Z,9.80
2019-03-21T15:16:57.087Z,9.80
2019-03-21T15:19:44.509Z,12.03
2019-03-21T15:22:18.227Z,12.37
2019-03-21T15:24:51.891Z,8.83
2019-03-21T15:27:25.580Z,11.80
2019-03-21T15:29:59.272Z,9.37
2019-03-21T15:32:35.180Z,9.77
2019-03-21T15:35:10.292Z,9.20
2019-03-21T15:37:44.073Z,10.27
2019-03-21T15:40:17.984Z,8.63
2019-03-21T15:42:53.852Z,9.00
2019-03-21T15:45:27.575Z,13.37
2019-03-21T15:48:01.362Z,17.33
2019-03-21T15:50:38.006Z,11.00
2019-03-21T15:53:12.151Z,11.50
2019-03-21T15:55:47.237Z,8.43
2019-03-21T15:58:20.910Z,12.77
2019-03-21T16:00:54.488Z,12.30
2019-03-21T16:03:28.448Z,10.37
2019-03-21T16:06:04.136Z,10.03
2019-03-21T16:08:37.757Z,11.20
2019-03-21T16:11:11.377Z,10.33
2019-03-21T16:13:45.166Z,9.40
2019-03-21T16:16:18.914Z,9.73
2019-03-21T16:18:52.618Z,10.40
2019-03-21T16:21:26.267Z,11.53
2019-03-21T16:24:05.014Z,10.53
2019-03-21T16:26:36.714Z,11.23
2019-03-21T16:29:10.517Z,12.10
2019-03-21T16:31:46.259Z,13.40
2019-03-21T16:34:19.987Z,10.67
2019-03-21T16:36:53.715Z,11.63
2019-03-21T16:39:27.262Z,11.03
2019-03-21T16:42:00.852Z,11.40
2019-03-21T16:44:34.584Z,7.53
2019-03-21T16:47:08.168Z,11.60
2019-03-21T16:49:41.934Z,8.17
2019-03-21T16:52:15.745Z,7.83
2019-03-21T16:54:49.256Z,10.97
2019-03-21T16:57:23.828Z,11.53
2019-03-21T16:59:57.502Z,7.87
2019-03-21T17:02:31.401Z,11.70
2019-03-21T17:05:05.117Z,9.63
2019-03-21T17:07:40.084Z,12.83
2019-03-21T17:10:14.141Z,9.50
2019-03-21T17:12:47.975Z,9.20
2019-03-21T17:15:21.932Z,11.67
2019-03-21T17:17:55.685Z,13.40
2019-03-21T17:20:29.489Z,11.70
2019-03-21T17:23:03.343Z,12.47
2019-03-21T17:25:37.101Z,11.00
2019-03-21T17:28:10.791Z,7.77
2019-03-21T17:30:44.379Z,10.63
2019-03-21T17:33:17.912Z,9.57
2019-03-21T17:35:51.793Z,11.83
2019-03-21T17:38:25.564Z,8.20
2019-03-21T17:40:59.308Z,8.33
2019-03-21T17:43:32.944Z,9.17
2019-03-21T17:46:06.585Z,9.10
2019-03-21T17:48:42.286Z,7.57
2019-03-21T17:51:16.258Z,9.43
2019-03-21T17:53:49.812Z,7.80
2019-03-21T17:56:23.437Z,8.17
2019-03-21T17:58:57.075Z,8.17
2019-03-21T18:01:30.812Z,10.30
2019-03-21T18:04:04.485Z,7.13
2019-03-21T18:06:38.788Z,5.60
2019-03-21T18:09:12.659Z,10.20
2019-03-21T18:11:46.398Z,8.23
2019-03-21T18:14:20.175Z,7.83
2019-03-21T18:16:53.866Z,6.10
2019-03-21T18:19:27.451Z,7.43
2019-03-21T18:22:01.088Z,7.27
2019-03-21T18:24:34.959Z,7.43
2019-03-21T18:27:08.791Z,10.10
2019-03-21T18:29:42.387Z,6.63
2019-03-21T18:32:16.012Z,7.77
2019-03-21T18:34:49.464Z,8.93
2019-03-21T18:37:23.128Z,7.80
2019-03-21T18:39:56.620Z,6.87
2019-03-21T18:42:30.101Z,7.57
2019-03-21T18:45:03.730Z,8.70
2019-03-21T18:47:37.348Z,8.17
2019-03-21T18:50:11.705Z,7.17
2019-03-21T18:52:46.692Z,6.80
2019-03-21T18:55:20.489Z,5.37
2019-03-21T18:57:54.171Z,5.17
2019-03-21T19:00:27.863Z,5.43
2019-03-21T19:03:01.913Z,8.97
2019-03-21T19:05:39.190Z,6.53
2019-03-21T19:08:12.976Z,6.13
2019-03-21T19:10:46.554Z,6.47
2019-03-21T19:13:20.347Z,4.40
2019-03-21T19:15:53.893Z,4.40
2019-03-21T19:18:27.460Z,6.17
2019-03-21T19:21:01.083Z,4.90
2019-03-21T19:23:34.852Z,7.20
2019-03-21T19:26:08.663Z,4.70
2019-03-21T19:28:42.733Z,7.20
2019-03-21T19:31:16.192Z,4.40
2019-03-21T19:33:49.733Z,5.07
2019-03-21T19:36:23.527Z,5.73
2019-03-21T19:38:57.320Z,4.60
2019-03-21T19:41:30.965Z,5.03
2019-03-21T19:44:04.699Z,6.93
2019-03-21T19:46:38.403Z,6.10
2019-03-21T19:49:12.039Z,3.73
2019-03-21T19:51:45.767Z,5.13
2019-03-21T19:54:19.562Z,6.97
2019-03-21T19:56:53.247Z,4.13
2019-03-21T19:59:26.812Z,5.20
2019-03-21T20:02:00.294Z,4.00
2019-03-21T20:04:33.918Z,4.67
2019-03-21T20:07:07.797Z,8.57
2019-03-21T20:09:42.302Z,4.57
2019-03-21T20:12:15.855Z,5.47
2019-03-21T20:14:49.524Z,6.63
2019-03-21T20:17:23.064Z,5.00
2019-03-21T20:19:56.556Z,5.93
2019-03-21T20:22:30.129Z,6.33
2019-03-21T20:25:03.800Z,4.63
2019-03-21T20:27:37.213Z,10.93
2019-03-21T20:30:12.174Z,8.80
2019-03-21T20:32:45.777Z,7.70
2019-03-21T20:35:19.537Z,4.27
2019-03-21T20:37:53.023Z,6.47
2019-03-21T20:40:26.773Z,6.47
2019-03-21T20:43:00.502Z,5.40
2019-03-21T20:45:34.360Z,7.67
2019-03-21T20:48:08.114Z,5.83
2019-03-21T20:50:41.762Z,6.53
2019-03-21T20:53:15.404Z,6.60
2019-03-21T20:55:53.578Z,6.63
2019-03-21T20:58:24.406Z,7.47
2019-03-21T21:00:59.555Z,3.80
2019-03-21T21:03:33.266Z,4.07
2019-03-21T21:06:07.101Z,4.67
2019-03-21T21:08:40.715Z,4.47
2019-03-21T21:11:14.549Z,7.50
2019-03-21T21:13:48.211Z,5.80
2019-03-21T21:16:21.912Z,6.77
2019-03-21T21:18:55.497Z,5.70
2019-03-21T21:21:29.309Z,8.13
2019-03-21T21:24:04.461Z,4.37
2019-03-21T21:26:38.215Z,5.63
2019-03-21T21:29:11.890Z,4.67
2019-03-21T21:31:45.775Z,6.33
2019-03-21T21:34:19.276Z,3.70
2019-03-21T21:36:52.904Z,5.93
2019-03-21T21:39:26.804Z,3.00
2019-03-21T21:42:00.392Z,4.57
2019-03-21T21:44:33.866Z,3.53
2019-03-21T21:47:07.725Z,5.80
2019-03-21T21:49:41.458Z,4.13
2019-03-21T21:52:15.040Z,5.07
2019-03-21T21:54:49.314Z,3.87
2019-03-21T21:57:23.375Z,4.43
2019-03-21T21:59:57.191Z,3.17
2019-03-21T22:02:31.567Z,4.20
2019-03-21T22:05:05.019Z,3.73
2019-03-21T22:07:38.639Z,3.97
2019-03-21T22:10:13.582Z,4.77
2019-03-21T22:12:47.232Z,3.13
2019-03-21T22:15:21.128Z,3.57
2019-03-21T22:17:54.710Z,3.93
2019-03-21T22:20:28.330Z,3.30
2019-03-21T22:23:02.204Z,5.10
2019-03-21T22:25:35.807Z,3.30
2019-03-21T22:28:10.255Z,5.03
2019-03-21T22:30:44.218Z,2.70
2019-03-21T22:33:17.764Z,4.10
2019-03-21T22:35:57.307Z,3.23
2019-03-21T22:38:31.006Z,3.17
2019-03-21T22:41:04.478Z,2.40
2019-03-21T22:43:38.190Z,2.80
2019-03-21T22:46:11.798Z,3.50
2019-03-21T22:48:45.369Z,5.23
2019-03-21T22:51:18.829Z,4.87
2019-03-21T22:53:52.309Z,3.50
2019-03-21T22:56:25.820Z,5.27
2019-03-21T22:58:59.553Z,4.73
2019-03-21T23:01:33.293Z,4.40
2019-03-21T23:04:07.005Z,4.80
2019-03-21T23:06:40.684Z,4.03
2019-03-21T23:09:14.260Z,5.97
2019-03-21T23:11:47.798Z,5.50
2019-03-21T23:14:21.365Z,6.07
2019-03-21T23:16:55.012Z,4.47
2019-03-21T23:19:28.842Z,2.90
2019-03-21T23:22:02.373Z,3.97
2019-03-21T23:24:35.966Z,2.80
2019-03-21T23:27:09.630Z,3.37
2019-03-21T23:29:43.171Z,3.83
2019-03-21T23:32:16.631Z,5.53
2019-03-21T23:34:50.300Z,3.37
2019-03-21T23:37:24.147Z,2.93
2019-03-21T23:39:57.874Z,2.47
2019-03-21T23:42:31.506Z,3.60
2019-03-21T23:45:05.138Z,3.60
2019-03-21T23:47:38.877Z,4.20
2019-03-21T23:50:12.917Z,4.33
2019-03-21T23:52:46.689Z,4.70
2019-03-21T23:55:20.388Z,3.43
2019-03-21T23:57:54.071Z,3.50
